Terminal Aerodrome Forecast
Issued by NWS

Home | Current Version | Previous Version | Text Only | Print | Product List | Glossary Off
Versions: 1 2 3 4 5 6 7 8 9 10 11 12 13 14 15

000
FTUS43 KGRB 030520
TAFCWA
TAF
KCWA 030520Z 0306/0406 31006KT P6SM SCT040 SCT070
     FM031600 30012G18KT P6SM SCT060
     FM032000 30010G16KT P6SM BKN060
     FM040000 31006KT P6SM BKN060
      AMD LTD TO CLD VIS AND WND TIL 11Z=

USA.gov is the U.S. government's official web portal to all federal, state and local government web resources and services.